Terminal Aerodrome Forecast
Issued by NWS Cleveland, OH

Home | Current Version | Previous Version | Graphics & Text | Print | Product List | Glossary Off
Versions: 1 2 3 4 5 6 7 8 9 10 11 12 13 14 15 16 17 18 19 20 21

000
FTUS41 KCLE 151100
TAFYNG
TAF
KYNG 151123Z 1512/1612 32012KT 4SM -FZRASN BR OVC008
      TEMPO 1512/1515 3/4SM -SNPL BR OVC006
     FM151500 31012G18KT 5SM -SHSN BR OVC015
      TEMPO 1515/1518 2SM -SHSN BR OVC008
     FM151800 30015G25KT P6SM OVC015
      TEMPO 1518/1522 5SM -SHSN
     FM160000 32012KT P6SM OVC025
     FM160600 32009KT P6SM SCT250=

USA.gov is the U.S. government's official web portal to all federal, state and local government web resources and services.